Latest Weather Observations for Port Lincoln Airport

IDS60801

Issued at 6:01 am CST Monday 26 September 2016 (issued every 30 minutes, with the page automatically refreshed every 10 minutes)

About weather observations | Map of weather stations | Latest weather observations for SA | Other Formats
Station Details ID: 018192 Name: PORT LINCOLN AWS Lat: -34.60 Lon: 135.88 Height: 8.5 m
Data from the previous 72 hours. | See also: Recent months at Port Lincoln Airport
Date/Time
CST
Temp
°C
App
Temp
°C
Dew
Point
°C
Rel
Hum
%
Delta-T
°C
Wind Press
QNH
hPa
Press
MSL
hPa
Rain since
9am
mm
Dir  Spd
km/h
Gust
km/h
Spd
kts
Gust
kts
26/06:00am 9.3 5.4 5.5 77 1.7 NW 15 17 8 9 1011.5 1011.5 0.6
26/05:30am 9.1 5.6 5.3 77 1.7 WNW 13 15 7 8 1011.3 1011.3 0.6
26/05:00am 10.1 5.3 4.9 70 2.3 NNW 19 24 10 13 1011.0 1011.0 0.6
26/04:30am 8.4 4.9 5.5 82 1.3 WNW 13 17 7 9 1011.1 1011.1 0.6
26/04:00am 7.1 4.2 4.8 85 1.0 WNW 9 11 5 6 1011.1 1011.1 0.6
26/03:30am 8.1 6.7 5.6 84 1.1 SSE 2 9 1 5 1011.1 1011.1 0.6
26/03:00am 8.8 4.6 5.9 82 1.3 NNW 17 22 9 12 1011.2 1011.2 0.6
26/02:30am 8.8 4.7 6.1 83 1.2 N 17 26 9 14 1011.5 1011.5 0.6
26/02:00am 7.7 5.5 5.2 84 1.1 N 6 9 3 5 1011.7 1011.7 0.6
26/01:30am 7.5 4.1 5.8 89 0.8 N 13 15 7 8 1011.8 1011.8 0.6
26/01:00am 7.2 4.1 5.5 89 0.8 NNW 11 13 6 7 1012.1 1012.1 0.6
26/12:30am 7.8 4.8 5.9 88 0.9 NNW 11 13 6 7 1012.7 1012.7 0.6
26/12:00am 7.9 4.5 5.7 86 1.0 NW 13 17 7 9 1013.4 1013.4 0.6
 
Date/Time
CST
Temp
°C
App
Temp
°C
Dew
Point
°C
Rel
Hum
%
Delta-T
°C
Wind Press
QNH
hPa
Press
MSL
hPa
Rain since
9am
mm
Dir  Spd
km/h
Gust
km/h
Spd
kts
Gust
kts
25/11:30pm 8.5 4.4 6.1 85 1.1 NNW 17 20 9 11 1014.1 1014.1 0.6
25/11:00pm 7.8 5.1 5.6 86 1.0 NW 9 11 5 6 1014.3 1014.3 0.6
25/10:30pm 8.1 5.5 6.1 87 0.9 NNW 9 13 5 7 1014.8 1014.8 0.6
25/10:00pm 8.0 5.0 6.1 88 0.9 N 11 13 6 7 1015.2 1015.2 0.6
25/09:30pm 8.4 4.7 6.2 86 1.0 WNW 15 17 8 9 1015.2 1015.2 0.6
25/09:00pm 8.6 5.3 6.4 86 1.0 WNW 13 17 7 9 1015.1 1015.1 0.6
25/08:30pm 9.4 5.2 5.9 79 1.6 WNW 17 20 9 11 1014.9 1014.9 0.6
25/08:00pm 8.3 6.0 5.9 85 1.1 NW 7 9 4 5 1014.8 1014.8 0.6
25/07:30pm 9.4 6.6 7.0 85 1.1 WNW 11 13 6 7 1014.5 1014.5 0.6
25/07:00pm 9.4 6.5 6.7 83 1.3 WNW 11 13 6 7 1014.2 1014.2 0.6
25/06:30pm 11.3 7.3 6.8 74 2.1 WNW 17 20 9 11 1014.0 1014.0 0.6
25/06:00pm 12.3 7.8 7.0 70 2.5 WNW 20 26 11 14 1013.9 1013.9 0.6
25/05:30pm 14.0 8.9 5.9 58 3.8 WNW 22 30 12 16 1013.7 1013.7 0.6
25/05:00pm 14.6 8.5 6.7 59 3.8 WNW 28 35 15 19 1013.5 1013.5 0.6
25/04:30pm 13.9 8.3 7.2 64 3.3 WNW 26 33 14 18 1013.5 1013.5 0.6
25/04:00pm 16.4 11.2 7.1 54 4.6 WNW 24 32 13 17 1013.3 1013.3 0.6
25/03:30pm 16.3 12.6 7.8 57 4.3 WNW 17 26 9 14 1013.2 1013.2 0.6
25/03:00pm 15.6 10.9 6.1 53 4.6 WNW 20 26 11 14 1013.3 1013.3 0.6
25/02:30pm 16.6 11.1 5.9 49 5.2 W 24 32 13 17 1013.5 1013.5 0.6
25/02:00pm 16.5 10.9 7.2 54 4.6 WNW 26 35 14 19 1013.7 1013.7 0.6
25/01:30pm 16.1 10.6 5.7 50 5.0 WNW 24 35 13 19 1014.0 1014.0 0.6
25/01:00pm 16.3 11.7 8.3 59 4.1 NW 22 30 12 16 1014.4 1014.4 0.6
25/12:30pm 15.1 10.5 6.4 56 4.2 NW 20 26 11 14 1014.7 1014.7 0.6
25/12:00pm 15.1 10.7 6.7 57 4.1 W 19 28 10 15 1014.9 1014.9 0.6
25/11:30am 15.4 10.1 5.0 50 4.9 NW 22 30 12 16 1015.2 1015.2 0.6
25/11:00am 15.1 11.2 7.2 59 3.9 WNW 17 26 9 14 1015.4 1015.4 0.6
25/10:30am 14.5 11.4 8.7 68 2.9 W 15 20 8 11 1015.7 1015.7 0.6
25/10:00am 13.2 10.4 8.5 73 2.3 NW 13 22 7 12 1016.1 1016.1 0.6
25/09:30am 11.0 8.1 8.1 82 1.4 NW 13 19 7 10 1016.3 1016.3 0.6
25/09:28am 11.0 7.7 8.2 83 1.4 NW 15 24 8 13 1016.3 1016.3 0.6
25/09:08am 10.8 5.2 8.7 87 1.0 WNW 28 39 15 21 1016.6 1016.6 0.4
25/09:00am 12.8 8.3 6.8 67 2.9 NW 20 28 11 15 1016.4 1016.4 1.8
25/08:30am 12.2 9.0 8.5 78 1.8 NNW 15 17 8 9 1016.0 1016.0 1.8
25/08:00am 10.7 7.8 8.1 84 1.3 NW 13 17 7 9 1016.0 1016.0 1.8
25/07:30am 9.4 6.7 7.5 88 0.9 NW 11 19 6 10 1015.8 1015.8 1.8
25/07:00am 9.0 4.6 7.5 90 0.7 NW 20 24 11 13 1015.8 1015.8 1.8
25/06:30am 5.8 3.0 5.1 95 0.3 NW 9 15 5 8 1015.6 1015.6 1.8
25/06:00am 6.3 2.1 5.7 96 0.3 WNW 17 19 9 10 1015.4 1015.4 1.8
25/05:30am 5.8 0.9 5.1 95 0.3 NW 20 20 11 11 1015.2 1015.2 1.8
25/05:00am 6.4 2.6 5.8 96 0.3 WNW 15 19 8 10 1014.8 1014.8 1.8
25/04:30am 6.7 3.7 6.0 95 0.3 NW 11 15 6 8 1014.6 1014.6 1.8
25/04:00am 8.0 4.4 6.8 92 0.6 WNW 15 17 8 9 1014.2 1014.2 1.8
25/03:30am 8.2 5.0 6.8 91 0.6 WNW 13 17 7 9 1014.2 1014.2 1.8
25/03:00am 6.6 2.3 5.4 92 0.5 NW 17 20 9 11 1013.9 1013.9 1.8
25/02:30am 7.9 4.2 6.5 91 0.6 WNW 15 19 8 10 1013.9 1013.9 1.8
25/02:00am 6.9 3.1 5.7 92 0.5 WNW 15 17 8 9 1014.3 1014.3 1.8
25/01:30am 6.2 1.9 5.2 93 0.4 NW 17 19 9 10 1014.4 1014.4 1.8
25/01:00am 6.2 1.9 5.2 93 0.4 NW 17 17 9 9 1014.3 1014.3 1.6
25/12:30am 6.1 2.4 4.4 89 0.7 WNW 13 15 7 8 1014.3 1014.3 1.6
25/12:00am 7.6 3.9 6.1 90 0.7 W 15 17 8 9 1014.3 1014.3 1.6
 
Date/Time
CST
Temp
°C
App
Temp
°C
Dew
Point
°C
Rel
Hum
%
Delta-T
°C
Wind Press
QNH
hPa
Press
MSL
hPa
Rain since
9am
mm
Dir  Spd
km/h
Gust
km/h
Spd
kts
Gust
kts
24/11:30pm 9.0 5.1 7.3 89 0.8 W 17 22 9 12 1014.6 1014.6 1.6
24/11:00pm 8.3 5.8 6.4 88 0.9 W 9 13 5 7 1014.4 1014.4 1.6
24/10:30pm 6.1 2.8 4.7 91 0.6 WNW 11 15 6 8 1014.5 1014.5 1.6
24/10:00pm 7.5 4.3 5.3 86 1.0 W 11 15 6 8 1014.3 1014.3 1.6
24/09:30pm 8.9 4.8 6.0 82 1.3 W 17 32 9 17 1014.6 1014.6 1.6
24/09:00pm 6.8 3.1 4.5 85 1.0 W 13 17 7 9 1014.2 1014.2 1.6
24/08:30pm 7.7 3.7 5.0 83 1.2 W 15 17 8 9 1014.1 1014.1 1.6
24/08:00pm 7.2 3.6 4.9 85 1.0 W 13 17 7 9 1013.6 1013.6 1.6
24/07:30pm 7.7 3.7 5.0 83 1.2 W 15 17 8 9 1013.2 1013.2 1.6
24/07:00pm 8.4 4.4 4.8 78 1.6 W 15 17 8 9 1012.7 1012.7 1.6
24/06:30pm 9.7 6.1 5.1 73 2.1 WSW 13 17 7 9 1012.3 1012.3 1.6
24/06:00pm 12.0 6.3 5.0 62 3.2 SW 24 35 13 19 1011.9 1011.9 1.6
24/05:30pm 12.7 7.4 6.7 67 2.9 SW 24 32 13 17 1011.4 1011.4 1.6
24/05:00pm 13.7 8.6 7.5 66 3.0 SW 24 33 13 18 1010.9 1010.9 1.6
24/04:30pm 13.7 7.7 7.0 64 3.3 SW 28 37 15 20 1010.2 1010.2 1.6
24/04:00pm 14.0 8.5 7.5 65 3.2 SSW 26 33 14 18 1009.7 1009.7 1.6
24/03:30pm 14.5 9.3 8.7 68 2.9 SW 26 39 14 21 1009.2 1009.2 1.6
24/03:00pm 14.8 10.1 9.4 70 2.8 SSW 24 33 13 18 1008.6 1008.6 1.6
24/02:30pm 12.9 9.3 10.6 86 1.2 SSW 20 26 11 14 1008.6 1008.6 1.6
24/02:06pm 12.7 9.5 11.3 91 0.7 SW 19 24 10 13 1008.6 1008.6 1.6
24/02:00pm 12.1 8.5 10.7 91 0.7 SW 20 30 11 16 1008.6 1008.6 1.6
24/01:53pm 11.9 7.2 10.5 91 0.7 SW 26 37 14 20 1008.4 1008.4 1.4
24/01:30pm 12.4 8.3 10.0 85 1.2 SW 22 30 12 16 1008.3 1008.3 0.6
24/01:00pm 13.3 9.9 11.4 88 1.0 SW 20 26 11 14 1008.1 1008.1 0.6
24/12:55pm 12.8 9.2 10.7 87 1.1 SW 20 26 11 14 1008.1 1008.1 0.6
24/12:38pm 12.1 7.0 10.7 91 0.7 SW 28 39 15 21 1008.2 1008.2 0.4
24/12:30pm 12.6 7.7 10.0 84 1.3 WSW 26 41 14 22 1008.1 1008.1 0.0
24/12:00pm 13.2 9.0 11.1 87 1.1 WSW 24 35 13 19 1007.8 1007.8 0.0
24/11:42am 14.0 8.7 10.0 77 2.1 WSW 28 46 15 25 1007.5 1007.5 0.0
24/11:30am 16.2 11.9 7.7 57 4.3 SW 20 30 11 16 1007.3 1007.3 0.0
24/11:00am 16.5 11.6 6.9 53 4.7 SW 22 30 12 16 1007.4 1007.4 0.0
24/10:30am 16.0 12.8 8.5 61 3.8 WSW 15 24 8 13 1007.5 1007.5 0.0
24/10:00am 16.1 12.1 8.3 60 4.0 SW 19 26 10 14 1007.5 1007.5 0.0
24/09:30am 15.6 11.6 9.1 65 3.3 WSW 20 26 11 14 1007.5 1007.5 0.0
24/09:00am 15.4 11.7 9.5 68 3.1 WSW 19 28 10 15 1007.2 1007.2 0.0
24/08:30am 14.0 9.2 8.8 71 2.6 SW 24 33 13 18 1007.0 1007.0 0.0
24/08:00am 13.3 11.0 10.3 82 1.6 SW 13 19 7 10 1006.9 1006.9 0.0
24/07:30am 13.2 9.7 10.2 82 1.6 WSW 19 30 10 16 1006.2 1006.2 0.0
24/07:00am 12.4 9.7 10.5 88 1.0 W 15 19 8 10 1005.8 1005.8 0.0
24/06:30am 12.6 8.2 10.5 87 1.1 W 24 33 13 18 1005.4 1005.4 0.0
24/06:00am 13.2 9.1 11.4 89 1.0 W 24 33 13 18 1005.0 1005.0 0.0
24/05:30am 13.4 10.2 11.8 90 0.9 WSW 20 30 11 16 1004.7 1004.7 0.0
24/05:05am 13.5 11.7 12.1 91 0.8 W 13 17 7 9 1004.5 1004.5 0.0
24/05:00am 13.5 11.7 12.1 91 0.8 WSW 13 17 7 9 1004.3 1004.3 0.0
24/04:48am 13.6 11.4 12.2 91 0.8 WSW 15 19 8 10 1004.2 1004.2 0.0
24/04:47am 13.6 11.4 12.2 91 0.8 WSW 15 19 8 10 1004.2 1004.2 0.0
24/04:30am 13.6 10.5 12.2 91 0.8 WSW 20 30 11 16 1004.0 1004.0 0.0
24/04:00am 14.1 12.4 12.5 90 0.9 W 13 19 7 10 1003.8 1003.8 0.0
24/03:30am 14.0 11.5 12.2 89 1.0 WSW 17 20 9 11 1003.5 1003.5 0.0
24/03:23am 14.0 11.8 12.0 88 1.1 W 15 22 8 12 1003.4 1003.4 0.0
24/03:00am 13.9 11.4 11.1 83 1.5 NW 15 22 8 12 1003.3 1003.3 0.0
24/02:30am 14.7 11.8 10.9 78 2.0 NNW 17 24 9 13 1003.2 1003.2 0.0
24/02:00am 16.4 13.3 10.3 67 3.2 NNW 17 26 9 14 1002.9 1002.9 0.0
24/01:30am 16.1 13.4 10.2 68 3.1 NNW 15 20 8 11 1002.8 1002.8 0.0
24/01:00am 16.0 13.5 9.7 66 3.3 NNW 13 19 7 10 1003.0 1003.0 0.0
24/12:30am 16.2 13.7 9.8 66 3.4 NNW 13 20 7 11 1003.3 1003.3 0.0
24/12:00am 16.6 13.8 10.0 65 3.5 NNW 15 20 8 11 1003.5 1003.5 0.0
 
Date/Time
CST
Temp
°C
App
Temp
°C
Dew
Point
°C
Rel
Hum
%
Delta-T
°C
Wind Press
QNH
hPa
Press
MSL
hPa
Rain since
9am
mm
Dir  Spd
km/h
Gust
km/h
Spd
kts
Gust
kts
23/11:30pm 17.4 13.6 9.8 61 4.0 NNW 20 30 11 16 1003.6 1003.6 0.0
23/11:00pm 16.6 12.9 9.3 62 3.8 NNW 19 24 10 13 1004.0 1004.0 0.0
23/10:30pm 17.1 14.4 8.8 58 4.3 NNW 13 19 7 10 1004.3 1004.3 0.0
23/10:00pm 18.4 14.0 7.5 49 5.5 NNW 20 30 11 16 1004.5 1004.5 0.0
23/09:46pm 18.7 14.7 8.1 50 5.4 NNW 19 32 10 17 1004.3 1004.3 0.0
23/09:30pm 13.7 13.3 12.3 91 0.8 SW 6 11 3 6 1004.6 1004.6 0.0
23/09:00pm 13.4 12.9 12.1 92 0.7 SSE 6 7 3 4 1004.1 1004.1 0.0
23/08:30pm 12.8 13.2 11.2 90 0.8 CALM 0 0 0 0 1004.1 1004.1 0.0
23/08:00pm 13.2 12.0 11.6 90 0.9 NNE 9 11 5 6 1004.1 1004.1 0.0
23/07:30pm 13.6 13.0 11.8 89 1.0 N 6 7 3 4 1004.2 1004.2 0.0
23/07:00pm 13.9 13.3 11.8 87 1.1 NNE 6 9 3 5 1004.2 1004.2 0.0
23/06:30pm 14.6 13.0 11.7 83 1.6 NNE 11 15 6 8 1004.2 1004.2 0.0
23/06:00pm 15.4 13.5 11.8 79 2.0 NE 13 22 7 12 1003.8 1003.8 0.0
23/05:30pm 15.9 12.8 12.1 78 2.1 NE 20 28 11 15 1003.6 1003.6 0.0
23/05:00pm 17.6 14.3 12.7 73 2.7 NE 22 30 12 16 1003.6 1003.6 0.0
23/04:30pm 17.8 13.4 11.8 68 3.3 NE 26 35 14 19 1003.4 1003.4 0.0
23/04:00pm 17.9 13.1 11.5 66 3.5 NE 28 37 15 20 1003.7 1003.7 0.0
23/03:30pm 18.2 14.4 12.4 69 3.2 ENE 24 33 13 18 1004.0 1004.0 0.0
23/03:00pm 18.0 14.7 12.7 71 3.0 NE 22 30 12 16 1004.5 1004.5 0.0
23/02:30pm 18.4 13.9 12.6 69 3.2 ENE 28 35 15 19 1004.6 1004.6 0.0
23/02:00pm 19.2 16.1 13.4 69 3.3 ENE 22 33 12 18 1005.2 1005.2 0.0
23/01:30pm 20.1 17.1 13.6 66 3.7 ENE 22 28 12 15 1005.9 1005.9 0.0
23/01:00pm 23.0 19.7 10.8 46 6.8 NNE 19 26 10 14 1006.5 1006.5 0.0
23/12:30pm 22.2 17.8 9.0 43 7.1 NNE 22 30 12 16 1007.3 1007.3 0.0
23/12:00pm 21.3 16.3 7.9 42 7.0 N 24 33 13 18 1007.9 1007.9 0.0
23/11:30am 20.4 14.9 7.7 44 6.6 N 26 35 14 19 1008.4 1008.4 0.0
23/11:00am 19.5 14.5 7.9 47 6.0 N 24 32 13 17 1008.9 1008.9 0.0
23/10:30am 18.6 13.4 7.4 48 5.7 N 24 33 13 18 1009.6 1009.6 0.0
23/10:00am 17.9 13.2 7.9 52 5.1 N 22 33 12 18 1010.1 1010.1 0.0
23/09:30am 16.9 12.2 7.8 55 4.6 N 22 35 12 19 1010.5 1010.5 0.0
23/09:00am 15.9 12.2 7.9 59 4.0 NNE 17 24 9 13 1010.9 1010.9 0.0
23/08:30am 12.8 10.1 8.9 77 2.0 NE 13 17 7 9 1011.4 1011.4 0.0
23/08:00am 10.9 9.3 8.0 82 1.4 NNE 6 11 3 6 1011.8 1011.8 0.0
23/07:30am 9.1 6.3 6.9 86 1.0 NNE 11 15 6 8 1012.1 1012.1 0.0
23/07:00am 8.0 4.7 6.5 90 0.7 NNE 13 17 7 9 1012.2 1012.2 0.0
23/06:30am 7.8 4.1 6.1 89 0.8 NNE 15 20 8 11 1012.3 1012.3 0.0

Other Formats:

Comma delimited format used in spreadsheet applications
http://www.bom.gov.au/fwo/IDS60801/IDS60801.95661.axf

JavaScript Object Notation format (JSON) in row-major order
http://www.bom.gov.au/fwo/IDS60801/IDS60801.95661.json